SKY027 RJTT-RJFF
Flight info
| Callsign | SKY027 |
|---|---|
| Flight time | 1h 30m |
| Altitude | 34000 |
| Route | TIARA GUSRO Y20 KIRIN |
| Aircraft | B738/M-SDE2E3FGHIRWXY/LB1 |
Departure
| Time | 2026-05-07 11:28 |
|---|---|
| Airport | Tokyo Haneda International Airport (RJTT) |
Arrival
| Time | 2026-05-07 12:58 |
|---|---|
| Airport | Fukuoka Airport (RJFF) |
| Time | Latitude | Longitude | Altitude | Speed | Heading |
|---|---|---|---|---|---|
| 2026-05-07 11:06 | 35.55196 | 139.78026 | 24 ft | 0 kts | 150° |
| 2026-05-07 11:15 | 35.55200 | 139.78023 | 24 ft | 2 kts | 149° |
| 2026-05-07 11:15 | 35.55214 | 139.78013 | 26 ft | 2 kts | 155° |
| 2026-05-07 11:15 | 35.55224 | 139.78008 | 24 ft | 2 kts | 158° |
| 2026-05-07 11:15 | 35.55240 | 139.78002 | 29 ft | 2 kts | 167° |
| 2026-05-07 11:16 | 35.55256 | 139.77999 | 27 ft | 2 kts | 183° |
| 2026-05-07 11:16 | 35.55272 | 139.78004 | 26 ft | 2 kts | 211° |
| 2026-05-07 11:16 | 35.55284 | 139.78017 | 27 ft | 2 kts | 234° |
| 2026-05-07 11:16 | 35.55289 | 139.78025 | 27 ft | 1 kts | 239° |
| 2026-05-07 11:17 | 35.55290 | 139.78026 | 26 ft | 0 kts | 239° |
| 2026-05-07 11:19 | 35.55268 | 139.77973 | 25 ft | 13 kts | 243° |
| 2026-05-07 11:19 | 35.55233 | 139.77872 | 23 ft | 14 kts | 268° |
| 2026-05-07 11:20 | 35.55321 | 139.77770 | 21 ft | 19 kts | 330° |
| 2026-05-07 11:20 | 35.55341 | 139.77756 | 21 ft | 2 kts | 330° |
| 2026-05-07 11:20 | 35.55423 | 139.77697 | 21 ft | 20 kts | 329° |
| 2026-05-07 11:20 | 35.55536 | 139.77614 | 22 ft | 18 kts | 329° |
| 2026-05-07 11:21 | 35.55645 | 139.77539 | 23 ft | 17 kts | 332° |
| 2026-05-07 11:21 | 35.55756 | 139.77460 | 21 ft | 21 kts | 330° |
| 2026-05-07 11:21 | 35.55880 | 139.77373 | 26 ft | 19 kts | 330° |
| 2026-05-07 11:21 | 35.55980 | 139.77397 | 23 ft | 11 kts | 41° |
| 2026-05-07 11:22 | 35.56030 | 139.77506 | 24 ft | 20 kts | 62° |
| 2026-05-07 11:22 | 35.56099 | 139.77650 | 26 ft | 19 kts | 59° |
| 2026-05-07 11:22 | 35.56161 | 139.77782 | 24 ft | 17 kts | 60° |
| 2026-05-07 11:22 | 35.56222 | 139.77915 | 26 ft | 20 kts | 60° |
| 2026-05-07 11:23 | 35.56294 | 139.78067 | 27 ft | 18 kts | 60° |
| 2026-05-07 11:23 | 35.56352 | 139.78187 | 26 ft | 16 kts | 59° |
| 2026-05-07 11:23 | 35.56406 | 139.78301 | 27 ft | 15 kts | 60° |
| 2026-05-07 11:23 | 35.56456 | 139.78407 | 26 ft | 13 kts | 58° |
| 2026-05-07 11:24 | 35.56479 | 139.78451 | 27 ft | 6 kts | 57° |
| 2026-05-07 11:24 | 35.56500 | 139.78489 | 26 ft | 5 kts | 55° |
| 2026-05-07 11:24 | 35.56517 | 139.78529 | 26 ft | 5 kts | 65° |
| 2026-05-07 11:24 | 35.56529 | 139.78559 | 27 ft | 3 kts | 63° |
| 2026-05-07 11:25 | 35.56556 | 139.78626 | 28 ft | 7 kts | 67° |
| 2026-05-07 11:25 | 35.56555 | 139.78673 | 30 ft | 4 kts | 119° |
| 2026-05-07 11:25 | 35.56534 | 139.78694 | 29 ft | 4 kts | 148° |
| 2026-05-07 11:25 | 35.56532 | 139.78695 | 29 ft | 0 kts | 148° |
| 2026-05-07 11:27 | 35.56528 | 139.78698 | 28 ft | 6 kts | 148° |
| 2026-05-07 11:27 | 35.56297 | 139.78863 | 26 ft | 73 kts | 150° |
| 2026-05-07 11:27 | 35.55666 | 139.79307 | 27 ft | 134 kts | 150° |
| 2026-05-07 11:28 | 35.54735 | 139.79963 | 216 ft | 170 kts | 152° |
| 2026-05-07 11:28 | 35.53739 | 139.80746 | 1063 ft | 168 kts | 143° |
| 2026-05-07 11:28 | 35.52842 | 139.81791 | 1738 ft | 188 kts | 136° |
| 2026-05-07 11:28 | 35.51911 | 139.83021 | 2343 ft | 204 kts | 137° |
| 2026-05-07 11:29 | 35.50892 | 139.84351 | 2954 ft | 222 kts | 139° |
| 2026-05-07 11:29 | 35.49773 | 139.85762 | 3713 ft | 238 kts | 140° |
| 2026-05-07 11:29 | 35.48560 | 139.87256 | 4414 ft | 256 kts | 139° |
| 2026-05-07 11:29 | 35.47280 | 139.88829 | 5271 ft | 265 kts | 139° |
| 2026-05-07 11:30 | 35.46011 | 139.90539 | 6095 ft | 280 kts | 126° |
| 2026-05-07 11:30 | 35.45407 | 139.92816 | 7097 ft | 290 kts | 95° |
| 2026-05-07 11:30 | 35.45818 | 139.95261 | 7988 ft | 298 kts | 65° |
| 2026-05-07 11:30 | 35.47136 | 139.97250 | 8773 ft | 305 kts | 32° |
| 2026-05-07 11:31 | 35.49088 | 139.98204 | 9598 ft | 307 kts | 4° |
| 2026-05-07 11:31 | 35.51216 | 139.98404 | 10481 ft | 309 kts | 360° |
| 2026-05-07 11:31 | 35.53394 | 139.98545 | 11115 ft | 321 kts | 359° |
| 2026-05-07 11:31 | 35.55702 | 139.98633 | 11538 ft | 339 kts | 357° |
| 2026-05-07 11:32 | 35.60658 | 139.98638 | 12376 ft | 373 kts | 355° |
| 2026-05-07 11:32 | 35.63305 | 139.98598 | 12908 ft | 385 kts | 355° |
| 2026-05-07 11:32 | 35.65969 | 139.98544 | 13562 ft | 392 kts | 355° |
| 2026-05-07 11:33 | 35.68707 | 139.98456 | 14333 ft | 395 kts | 354° |
| 2026-05-07 11:33 | 35.71464 | 139.98272 | 15082 ft | 398 kts | 352° |
| 2026-05-07 11:33 | 35.74152 | 139.97566 | 15783 ft | 392 kts | 332° |
| 2026-05-07 11:33 | 35.76412 | 139.95782 | 16473 ft | 387 kts | 312° |
| 2026-05-07 11:34 | 35.77957 | 139.93139 | 17257 ft | 379 kts | 293° |
| 2026-05-07 11:34 | 35.78607 | 139.90024 | 17915 ft | 374 kts | 270° |
| 2026-05-07 11:34 | 35.78408 | 139.86811 | 18416 ft | 379 kts | 260° |
| 2026-05-07 11:34 | 35.77927 | 139.83602 | 18984 ft | 385 kts | 257° |
| 2026-05-07 11:35 | 35.77336 | 139.80391 | 19626 ft | 386 kts | 256° |
| 2026-05-07 11:35 | 35.76733 | 139.77140 | 20180 ft | 390 kts | 256° |
| 2026-05-07 11:35 | 35.76175 | 139.73856 | 20700 ft | 394 kts | 257° |
| 2026-05-07 11:35 | 35.75653 | 139.70533 | 21236 ft | 397 kts | 258° |
| 2026-05-07 11:36 | 35.75140 | 139.67229 | 21759 ft | 400 kts | 258° |
| 2026-05-07 11:36 | 35.74599 | 139.63856 | 22253 ft | 403 kts | 257° |
| 2026-05-07 11:36 | 35.74036 | 139.60458 | 22724 ft | 406 kts | 257° |
| 2026-05-07 11:36 | 35.73462 | 139.57037 | 23185 ft | 409 kts | 257° |
| 2026-05-07 11:37 | 35.72890 | 139.53596 | 23634 ft | 412 kts | 257° |
| 2026-05-07 11:37 | 35.72318 | 139.50122 | 24056 ft | 415 kts | 257° |
| 2026-05-07 11:37 | 35.71745 | 139.46635 | 24476 ft | 417 kts | 257° |
| 2026-05-07 11:37 | 35.71166 | 139.43128 | 24907 ft | 419 kts | 257° |
| 2026-05-07 11:38 | 35.70582 | 139.39607 | 25331 ft | 420 kts | 257° |
| 2026-05-07 11:38 | 35.69992 | 139.36073 | 25756 ft | 422 kts | 257° |
| 2026-05-07 11:38 | 35.69402 | 139.32538 | 26129 ft | 423 kts | 257° |
| 2026-05-07 11:38 | 35.68816 | 139.29029 | 26517 ft | 425 kts | 257° |
| 2026-05-07 11:39 | 35.68220 | 139.25461 | 26890 ft | 426 kts | 257° |
| 2026-05-07 11:39 | 35.67620 | 139.21880 | 27233 ft | 428 kts | 257° |
| 2026-05-07 11:39 | 35.67016 | 139.18289 | 27552 ft | 430 kts | 256° |
| 2026-05-07 11:39 | 35.66416 | 139.14680 | 27915 ft | 431 kts | 258° |
| 2026-05-07 11:40 | 35.66134 | 139.10988 | 28277 ft | 433 kts | 264° |
| 2026-05-07 11:40 | 35.65956 | 139.07275 | 28488 ft | 436 kts | 264° |
| 2026-05-07 11:40 | 35.65790 | 139.03550 | 28821 ft | 437 kts | 264° |
| 2026-05-07 11:40 | 35.65629 | 138.99809 | 29133 ft | 439 kts | 264° |
| 2026-05-07 11:41 | 35.65466 | 138.96043 | 29410 ft | 441 kts | 264° |
| 2026-05-07 11:41 | 35.65298 | 138.92284 | 29734 ft | 440 kts | 264° |
| 2026-05-07 11:41 | 35.65130 | 138.88582 | 30112 ft | 439 kts | 264° |
| 2026-05-07 11:41 | 35.64957 | 138.84844 | 30487 ft | 438 kts | 264° |
| 2026-05-07 11:42 | 35.64782 | 138.81057 | 30871 ft | 437 kts | 264° |
| 2026-05-07 11:42 | 35.64610 | 138.77371 | 31235 ft | 437 kts | 264° |
| 2026-05-07 11:42 | 35.64437 | 138.73654 | 31612 ft | 435 kts | 264° |
| 2026-05-07 11:42 | 35.64263 | 138.69940 | 31974 ft | 434 kts | 264° |
| 2026-05-07 11:43 | 35.64088 | 138.66231 | 32312 ft | 433 kts | 263° |
| 2026-05-07 11:43 | 35.63905 | 138.62538 | 32665 ft | 432 kts | 263° |
| 2026-05-07 11:43 | 35.63711 | 138.58852 | 32980 ft | 431 kts | 263° |
| 2026-05-07 11:43 | 35.63513 | 138.55182 | 33377 ft | 429 kts | 263° |
| 2026-05-07 11:44 | 35.63317 | 138.51529 | 33659 ft | 429 kts | 263° |
| 2026-05-07 11:44 | 35.63125 | 138.47869 | 33950 ft | 430 kts | 263° |
| 2026-05-07 11:44 | 35.62931 | 138.44176 | 33963 ft | 432 kts | 263° |
| 2026-05-07 11:45 | 35.62541 | 138.36851 | 33907 ft | 426 kts | 263° |
| 2026-05-07 11:45 | 35.62147 | 138.29621 | 33939 ft | 428 kts | 263° |
| 2026-05-07 11:46 | 35.61742 | 138.22289 | 33963 ft | 434 kts | 263° |
| 2026-05-07 11:46 | 35.61338 | 138.14917 | 33965 ft | 435 kts | 263° |
| 2026-05-07 11:47 | 35.60926 | 138.07519 | 33991 ft | 433 kts | 263° |
| 2026-05-07 11:47 | 35.60506 | 138.00150 | 33981 ft | 431 kts | 263° |
| 2026-05-07 11:48 | 35.60077 | 137.92633 | 33961 ft | 431 kts | 263° |
| 2026-05-07 11:48 | 35.59650 | 137.85275 | 33951 ft | 432 kts | 263° |
| 2026-05-07 11:49 | 35.59218 | 137.77914 | 33958 ft | 432 kts | 262° |
| 2026-05-07 11:49 | 35.58680 | 137.70619 | 33966 ft | 432 kts | 261° |
| 2026-05-07 11:50 | 35.58103 | 137.63273 | 33989 ft | 433 kts | 262° |
| 2026-05-07 11:50 | 35.57562 | 137.55836 | 33972 ft | 433 kts | 262° |
| 2026-05-07 11:51 | 35.56428 | 137.48683 | 33955 ft | 428 kts | 253° |
| 2026-05-07 11:51 | 35.54887 | 137.41622 | 33947 ft | 429 kts | 253° |
| 2026-05-07 11:52 | 35.53309 | 137.34491 | 33963 ft | 430 kts | 253° |
| 2026-05-07 11:52 | 35.51766 | 137.27454 | 33971 ft | 430 kts | 253° |
| 2026-05-07 11:53 | 35.50203 | 137.20357 | 33970 ft | 429 kts | 252° |
| 2026-05-07 11:53 | 35.48637 | 137.13293 | 33970 ft | 429 kts | 253° |
| 2026-05-07 11:54 | 35.47066 | 137.06225 | 33963 ft | 429 kts | 253° |
| 2026-05-07 11:54 | 35.45493 | 136.99159 | 33954 ft | 430 kts | 253° |
| 2026-05-07 11:55 | 35.43923 | 136.92131 | 33939 ft | 430 kts | 253° |
| 2026-05-07 11:55 | 35.42335 | 136.85045 | 33959 ft | 431 kts | 253° |
| 2026-05-07 11:56 | 35.40740 | 136.77953 | 33953 ft | 431 kts | 252° |
| 2026-05-07 11:56 | 35.39411 | 136.72052 | 33947 ft | 431 kts | 253° |
| 2026-05-07 11:57 | 35.37812 | 136.64974 | 33958 ft | 431 kts | 253° |
| 2026-05-07 11:57 | 35.36204 | 136.57885 | 33954 ft | 431 kts | 253° |
| 2026-05-07 11:58 | 35.34594 | 136.50806 | 33905 ft | 431 kts | 252° |
| 2026-05-07 11:58 | 35.32994 | 136.43791 | 33926 ft | 429 kts | 252° |
| 2026-05-07 11:59 | 35.31389 | 136.36761 | 33957 ft | 428 kts | 252° |
| 2026-05-07 11:59 | 35.29777 | 136.29733 | 33957 ft | 428 kts | 253° |
| 2026-05-07 12:00 | 35.28169 | 136.22733 | 33958 ft | 427 kts | 252° |
| 2026-05-07 12:00 | 35.26559 | 136.15752 | 33946 ft | 428 kts | 252° |
| 2026-05-07 12:01 | 35.24943 | 136.08756 | 33925 ft | 428 kts | 252° |
| 2026-05-07 12:01 | 35.23316 | 136.01744 | 33934 ft | 428 kts | 252° |
| 2026-05-07 12:02 | 35.21688 | 135.94744 | 33954 ft | 428 kts | 253° |
| 2026-05-07 12:02 | 35.20063 | 135.87765 | 33978 ft | 428 kts | 252° |
| 2026-05-07 12:03 | 35.18428 | 135.80792 | 33964 ft | 429 kts | 252° |
| 2026-05-07 12:03 | 35.17044 | 135.73643 | 33972 ft | 430 kts | 258° |
| 2026-05-07 12:04 | 35.15996 | 135.66424 | 33966 ft | 430 kts | 257° |
| 2026-05-07 12:04 | 35.14778 | 135.59328 | 33954 ft | 430 kts | 256° |
| 2026-05-07 12:05 | 35.13525 | 135.52167 | 33955 ft | 430 kts | 257° |
| 2026-05-07 12:05 | 35.12332 | 135.44998 | 33944 ft | 430 kts | 257° |
| 2026-05-07 12:06 | 35.11112 | 135.37843 | 33956 ft | 430 kts | 256° |
| 2026-05-07 12:06 | 35.09878 | 135.30700 | 33967 ft | 430 kts | 256° |
| 2026-05-07 12:07 | 35.08654 | 135.23538 | 33958 ft | 430 kts | 256° |
| 2026-05-07 12:07 | 35.07421 | 135.16386 | 33950 ft | 431 kts | 256° |
| 2026-05-07 12:08 | 35.06178 | 135.09228 | 33947 ft | 431 kts | 256° |
| 2026-05-07 12:08 | 35.04937 | 135.02084 | 33899 ft | 429 kts | 256° |
| 2026-05-07 12:09 | 35.03694 | 134.94965 | 33926 ft | 429 kts | 256° |
| 2026-05-07 12:09 | 35.02456 | 134.87892 | 33931 ft | 429 kts | 256° |
| 2026-05-07 12:10 | 35.01210 | 134.80788 | 33932 ft | 427 kts | 256° |
| 2026-05-07 12:10 | 34.99960 | 134.73716 | 33953 ft | 427 kts | 256° |
| 2026-05-07 12:11 | 34.98697 | 134.66634 | 33935 ft | 427 kts | 255° |
| 2026-05-07 12:11 | 34.97295 | 134.59590 | 33940 ft | 426 kts | 254° |
| 2026-05-07 12:12 | 34.95876 | 134.52561 | 33934 ft | 427 kts | 255° |
| 2026-05-07 12:12 | 34.94505 | 134.45538 | 33931 ft | 427 kts | 255° |
| 2026-05-07 12:13 | 34.93111 | 134.38515 | 33946 ft | 426 kts | 255° |
| 2026-05-07 12:13 | 34.91702 | 134.31475 | 33952 ft | 426 kts | 255° |
| 2026-05-07 12:14 | 34.90311 | 134.24502 | 33932 ft | 425 kts | 255° |
| 2026-05-07 12:14 | 34.88909 | 134.17512 | 33930 ft | 425 kts | 255° |
| 2026-05-07 12:15 | 34.87503 | 134.10532 | 33953 ft | 425 kts | 255° |
| 2026-05-07 12:15 | 34.86127 | 134.03713 | 33950 ft | 426 kts | 255° |
| 2026-05-07 12:16 | 34.84708 | 133.96698 | 33963 ft | 426 kts | 255° |
| 2026-05-07 12:16 | 34.83286 | 133.89699 | 33959 ft | 425 kts | 255° |
| 2026-05-07 12:17 | 34.81862 | 133.82733 | 33964 ft | 424 kts | 255° |
| 2026-05-07 12:17 | 34.80392 | 133.75781 | 33952 ft | 424 kts | 254° |
| 2026-05-07 12:18 | 34.78928 | 133.68886 | 33957 ft | 420 kts | 254° |
| 2026-05-07 12:18 | 34.77504 | 133.62124 | 33953 ft | 409 kts | 254° |
| 2026-05-07 12:19 | 34.76080 | 133.55419 | 33958 ft | 409 kts | 254° |
| 2026-05-07 12:19 | 34.74655 | 133.48739 | 33956 ft | 407 kts | 254° |
| 2026-05-07 12:20 | 34.73230 | 133.42058 | 33952 ft | 407 kts | 254° |
| 2026-05-07 12:20 | 34.71812 | 133.35437 | 33961 ft | 407 kts | 254° |
| 2026-05-07 12:21 | 34.70384 | 133.28795 | 33949 ft | 407 kts | 254° |
| 2026-05-07 12:21 | 34.68948 | 133.22127 | 33953 ft | 407 kts | 254° |
| 2026-05-07 12:22 | 34.67510 | 133.15472 | 33968 ft | 407 kts | 254° |
| 2026-05-07 12:22 | 34.66069 | 133.08823 | 33956 ft | 407 kts | 254° |
| 2026-05-07 12:23 | 34.64625 | 133.02176 | 33954 ft | 407 kts | 254° |
| 2026-05-07 12:23 | 34.63175 | 132.95521 | 33953 ft | 407 kts | 254° |
| 2026-05-07 12:24 | 34.61723 | 132.88876 | 33942 ft | 406 kts | 254° |
| 2026-05-07 12:24 | 34.60270 | 132.82246 | 33950 ft | 407 kts | 254° |
| 2026-05-07 12:25 | 34.58809 | 132.75595 | 33891 ft | 407 kts | 253° |
| 2026-05-07 12:25 | 34.57359 | 132.69012 | 33971 ft | 405 kts | 254° |
| 2026-05-07 12:26 | 34.55895 | 132.62392 | 33988 ft | 405 kts | 253° |
| 2026-05-07 12:26 | 34.54426 | 132.55764 | 33974 ft | 406 kts | 253° |
| 2026-05-07 12:27 | 34.52955 | 132.49144 | 33954 ft | 407 kts | 253° |
| 2026-05-07 12:27 | 34.51479 | 132.42527 | 33872 ft | 407 kts | 253° |
| 2026-05-07 12:28 | 34.50000 | 132.35910 | 33894 ft | 407 kts | 253° |
| 2026-05-07 12:28 | 34.48525 | 132.29320 | 33920 ft | 407 kts | 253° |
| 2026-05-07 12:29 | 34.47037 | 132.22703 | 33979 ft | 405 kts | 253° |
| 2026-05-07 12:29 | 34.45551 | 132.16118 | 33956 ft | 405 kts | 253° |
| 2026-05-07 12:30 | 34.44062 | 132.09530 | 33932 ft | 405 kts | 253° |
| 2026-05-07 12:30 | 34.42573 | 132.02964 | 33905 ft | 407 kts | 253° |
| 2026-05-07 12:31 | 34.41072 | 131.96366 | 33700 ft | 410 kts | 253° |
| 2026-05-07 12:31 | 34.40325 | 131.93089 | 33467 ft | 401 kts | 253° |
| 2026-05-07 12:31 | 34.39588 | 131.89859 | 33239 ft | 398 kts | 253° |
| 2026-05-07 12:31 | 34.38846 | 131.86611 | 32805 ft | 404 kts | 253° |
| 2026-05-07 12:32 | 34.38102 | 131.83359 | 32344 ft | 397 kts | 253° |
| 2026-05-07 12:32 | 34.37371 | 131.80170 | 31877 ft | 391 kts | 254° |
| 2026-05-07 12:32 | 34.36644 | 131.77004 | 31348 ft | 390 kts | 254° |
| 2026-05-07 12:32 | 34.35910 | 131.73814 | 30786 ft | 398 kts | 254° |
| 2026-05-07 12:33 | 34.34396 | 131.67230 | 29436 ft | 408 kts | 254° |
| 2026-05-07 12:33 | 34.33647 | 131.63980 | 28864 ft | 402 kts | 254° |
| 2026-05-07 12:33 | 34.32899 | 131.60738 | 28327 ft | 392 kts | 254° |
| 2026-05-07 12:34 | 34.32169 | 131.57582 | 27814 ft | 383 kts | 255° |
| 2026-05-07 12:34 | 34.31465 | 131.54546 | 27315 ft | 374 kts | 255° |
| 2026-05-07 12:34 | 34.30770 | 131.51551 | 26825 ft | 366 kts | 254° |
| 2026-05-07 12:34 | 34.30089 | 131.48615 | 26338 ft | 359 kts | 255° |
| 2026-05-07 12:35 | 34.29419 | 131.45734 | 25817 ft | 352 kts | 255° |
| 2026-05-07 12:35 | 34.28765 | 131.42920 | 25363 ft | 344 kts | 255° |
| 2026-05-07 12:35 | 34.28122 | 131.40156 | 24917 ft | 337 kts | 255° |
| 2026-05-07 12:35 | 34.27491 | 131.37454 | 24462 ft | 332 kts | 255° |
| 2026-05-07 12:36 | 34.26869 | 131.34788 | 23997 ft | 326 kts | 255° |
| 2026-05-07 12:36 | 34.26258 | 131.32172 | 23521 ft | 321 kts | 255° |
| 2026-05-07 12:36 | 34.25655 | 131.29593 | 23075 ft | 319 kts | 254° |
| 2026-05-07 12:36 | 34.25050 | 131.27011 | 22633 ft | 320 kts | 255° |
| 2026-05-07 12:37 | 34.24442 | 131.24413 | 22188 ft | 321 kts | 254° |
| 2026-05-07 12:37 | 34.23836 | 131.21838 | 21713 ft | 323 kts | 254° |
| 2026-05-07 12:37 | 34.23220 | 131.19219 | 21238 ft | 324 kts | 253° |
| 2026-05-07 12:37 | 34.22602 | 131.16586 | 20757 ft | 326 kts | 253° |
| 2026-05-07 12:38 | 34.21982 | 131.13947 | 20273 ft | 326 kts | 253° |
| 2026-05-07 12:38 | 34.21359 | 131.11302 | 19784 ft | 327 kts | 253° |
| 2026-05-07 12:38 | 34.20732 | 131.08649 | 19279 ft | 329 kts | 253° |
| 2026-05-07 12:38 | 34.20102 | 131.05987 | 18772 ft | 329 kts | 253° |
| 2026-05-07 12:39 | 34.19686 | 131.04225 | 18443 ft | 330 kts | 252° |
| 2026-05-07 12:39 | 34.19032 | 131.01570 | 17892 ft | 329 kts | 250° |
| 2026-05-07 12:39 | 34.18198 | 130.99030 | 17730 ft | 320 kts | 246° |
| 2026-05-07 12:39 | 34.17283 | 130.96622 | 17516 ft | 314 kts | 244° |
| 2026-05-07 12:40 | 34.16321 | 130.94270 | 17176 ft | 313 kts | 243° |
| 2026-05-07 12:40 | 34.15324 | 130.91940 | 16750 ft | 311 kts | 242° |
| 2026-05-07 12:40 | 34.14317 | 130.89633 | 16327 ft | 310 kts | 242° |
| 2026-05-07 12:40 | 34.13300 | 130.87333 | 15883 ft | 309 kts | 242° |
| 2026-05-07 12:41 | 34.12285 | 130.85058 | 15448 ft | 308 kts | 242° |
| 2026-05-07 12:41 | 34.11264 | 130.82781 | 14998 ft | 307 kts | 242° |
| 2026-05-07 12:41 | 34.10247 | 130.80526 | 14552 ft | 305 kts | 242° |
| 2026-05-07 12:41 | 34.09232 | 130.78281 | 14106 ft | 304 kts | 242° |
| 2026-05-07 12:42 | 34.08219 | 130.76054 | 13659 ft | 302 kts | 242° |
| 2026-05-07 12:42 | 34.07207 | 130.73841 | 13208 ft | 300 kts | 242° |
| 2026-05-07 12:42 | 34.06215 | 130.71674 | 12750 ft | 298 kts | 242° |
| 2026-05-07 12:42 | 34.05198 | 130.69462 | 12296 ft | 296 kts | 242° |
| 2026-05-07 12:43 | 34.04214 | 130.67327 | 11850 ft | 295 kts | 242° |
| 2026-05-07 12:43 | 34.03219 | 130.65174 | 11402 ft | 293 kts | 241° |
| 2026-05-07 12:43 | 34.02230 | 130.63033 | 10955 ft | 292 kts | 241° |
| 2026-05-07 12:43 | 34.01249 | 130.60898 | 10506 ft | 290 kts | 241° |
| 2026-05-07 12:44 | 34.00280 | 130.58780 | 10062 ft | 288 kts | 241° |
| 2026-05-07 12:44 | 33.99324 | 130.56673 | 9701 ft | 283 kts | 242° |
| 2026-05-07 12:44 | 33.98397 | 130.54620 | 9465 ft | 274 kts | 241° |
| 2026-05-07 12:44 | 33.97499 | 130.52622 | 9236 ft | 268 kts | 241° |
| 2026-05-07 12:45 | 33.96622 | 130.50657 | 8935 ft | 265 kts | 241° |
| 2026-05-07 12:45 | 33.95752 | 130.48696 | 8572 ft | 265 kts | 241° |
| 2026-05-07 12:45 | 33.94890 | 130.46737 | 8227 ft | 264 kts | 241° |
| 2026-05-07 12:45 | 33.94036 | 130.44785 | 7912 ft | 262 kts | 242° |
| 2026-05-07 12:46 | 33.93185 | 130.42841 | 7537 ft | 262 kts | 242° |
| 2026-05-07 12:46 | 33.92340 | 130.40899 | 7147 ft | 261 kts | 242° |
| 2026-05-07 12:46 | 33.91503 | 130.38969 | 6778 ft | 261 kts | 242° |
| 2026-05-07 12:46 | 33.90665 | 130.37032 | 6405 ft | 261 kts | 242° |
| 2026-05-07 12:47 | 33.89828 | 130.35091 | 6037 ft | 260 kts | 242° |
| 2026-05-07 12:47 | 33.88994 | 130.33157 | 5665 ft | 260 kts | 242° |
| 2026-05-07 12:47 | 33.88036 | 130.31319 | 5290 ft | 259 kts | 231° |
| 2026-05-07 12:47 | 33.86807 | 130.29737 | 4914 ft | 258 kts | 223° |
| 2026-05-07 12:48 | 33.85459 | 130.28361 | 4548 ft | 249 kts | 219° |
| 2026-05-07 12:48 | 33.84109 | 130.27167 | 4168 ft | 240 kts | 216° |
| 2026-05-07 12:48 | 33.82730 | 130.26051 | 3789 ft | 232 kts | 214° |
| 2026-05-07 12:48 | 33.81271 | 130.25285 | 3432 ft | 227 kts | 198° |
| 2026-05-07 12:49 | 33.79747 | 130.24962 | 3050 ft | 224 kts | 188° |
| 2026-05-07 12:49 | 33.78200 | 130.24897 | 2671 ft | 220 kts | 181° |
| 2026-05-07 12:49 | 33.76678 | 130.24979 | 2292 ft | 217 kts | 176° |
| 2026-05-07 12:49 | 33.75186 | 130.25134 | 1999 ft | 213 kts | 174° |
| 2026-05-07 12:50 | 33.73744 | 130.25322 | 1986 ft | 204 kts | 173° |
| 2026-05-07 12:50 | 33.72362 | 130.25523 | 1988 ft | 195 kts | 173° |
| 2026-05-07 12:50 | 33.71046 | 130.25863 | 1997 ft | 191 kts | 160° |
| 2026-05-07 12:50 | 33.69839 | 130.26545 | 1998 ft | 189 kts | 150° |
| 2026-05-07 12:51 | 33.68748 | 130.27422 | 2007 ft | 188 kts | 144° |
| 2026-05-07 12:51 | 33.67750 | 130.28403 | 1980 ft | 180 kts | 139° |
| 2026-05-07 12:51 | 33.66849 | 130.29410 | 2034 ft | 177 kts | 136° |
| 2026-05-07 12:51 | 33.65986 | 130.30451 | 2045 ft | 174 kts | 135° |
| 2026-05-07 12:52 | 33.65119 | 130.31473 | 2033 ft | 176 kts | 137° |
| 2026-05-07 12:52 | 33.64232 | 130.32465 | 1996 ft | 171 kts | 139° |
| 2026-05-07 12:52 | 33.63353 | 130.33417 | 1982 ft | 170 kts | 139° |
| 2026-05-07 12:52 | 33.62469 | 130.34353 | 1974 ft | 169 kts | 140° |
| 2026-05-07 12:53 | 33.61584 | 130.35279 | 1974 ft | 168 kts | 140° |
| 2026-05-07 12:53 | 33.60735 | 130.36254 | 1973 ft | 169 kts | 135° |
| 2026-05-07 12:53 | 33.59896 | 130.37238 | 1978 ft | 169 kts | 138° |
| 2026-05-07 12:53 | 33.59017 | 130.38153 | 1892 ft | 172 kts | 149° |
| 2026-05-07 12:54 | 33.58034 | 130.38873 | 1963 ft | 161 kts | 150° |
| 2026-05-07 12:54 | 33.57025 | 130.39570 | 2137 ft | 171 kts | 151° |
| 2026-05-07 12:54 | 33.56006 | 130.40269 | 1893 ft | 165 kts | 150° |
| 2026-05-07 12:54 | 33.55053 | 130.40910 | 1742 ft | 155 kts | 153° |
| 2026-05-07 12:55 | 33.54091 | 130.41475 | 1587 ft | 152 kts | 155° |
| 2026-05-07 12:55 | 33.53141 | 130.41973 | 1488 ft | 147 kts | 157° |
| 2026-05-07 12:55 | 33.52292 | 130.42624 | 1408 ft | 142 kts | 134° |
| 2026-05-07 12:55 | 33.51874 | 130.43666 | 1263 ft | 142 kts | 97° |
| 2026-05-07 12:56 | 33.51982 | 130.44821 | 1123 ft | 142 kts | 73° |
| 2026-05-07 12:56 | 33.52388 | 130.45920 | 1066 ft | 144 kts | 60° |
| 2026-05-07 12:56 | 33.52973 | 130.46941 | 912 ft | 149 kts | 49° |
| 2026-05-07 12:56 | 33.53811 | 130.47594 | 743 ft | 145 kts | 15° |
| 2026-05-07 12:57 | 33.54802 | 130.47586 | 634 ft | 147 kts | 339° |
| 2026-05-07 12:57 | 33.55734 | 130.46984 | 515 ft | 158 kts | 330° |
| 2026-05-07 12:57 | 33.56689 | 130.46359 | 266 ft | 153 kts | 331° |
| 2026-05-07 12:57 | 33.57588 | 130.45752 | 83 ft | 145 kts | 330° |
| 2026-05-07 12:58 | 33.58325 | 130.45251 | 35 ft | 89 kts | 331° |
| 2026-05-07 12:58 | 33.58664 | 130.45021 | 34 ft | 25 kts | 330° |
| 2026-05-07 12:58 | 33.58858 | 130.44890 | 30 ft | 31 kts | 330° |
| 2026-05-07 12:58 | 33.59030 | 130.44772 | 28 ft | 29 kts | 330° |
| 2026-05-07 12:59 | 33.59205 | 130.44655 | 26 ft | 29 kts | 331° |
| 2026-05-07 12:59 | 33.59344 | 130.44557 | 30 ft | 15 kts | 329° |
| 2026-05-07 12:59 | 33.59441 | 130.44509 | 26 ft | 15 kts | 344° |
| 2026-05-07 12:59 | 33.59542 | 130.44488 | 27 ft | 15 kts | 358° |
| 2026-05-07 13:00 | 33.59621 | 130.44489 | 27 ft | 10 kts | 6° |
| 2026-05-07 13:00 | 33.59683 | 130.44524 | 26 ft | 10 kts | 22° |
| 2026-05-07 13:00 | 33.59749 | 130.44508 | 27 ft | 9 kts | 332° |
| 2026-05-07 13:00 | 33.59803 | 130.44471 | 28 ft | 9 kts | 330° |
| 2026-05-07 13:01 | 33.59857 | 130.44440 | 26 ft | 6 kts | 346° |
| 2026-05-07 13:01 | 33.59886 | 130.44443 | 28 ft | 2 kts | 22° |
| 2026-05-07 13:01 | 33.59892 | 130.44447 | 26 ft | 0 kts | 33° |
| 2026-05-07 13:04 | 33.59897 | 130.44452 | 27 ft | 3 kts | 39° |
| 2026-05-07 13:04 | 33.59904 | 130.44474 | 29 ft | 4 kts | 83° |
| 2026-05-07 13:04 | 33.59883 | 130.44515 | 27 ft | 6 kts | 140° |
| 2026-05-07 13:05 | 33.59848 | 130.44543 | 27 ft | 6 kts | 149° |
| 2026-05-07 13:05 | 33.59812 | 130.44567 | 25 ft | 6 kts | 151° |
| 2026-05-07 13:05 | 33.59778 | 130.44591 | 28 ft | 6 kts | 144° |
| 2026-05-07 13:05 | 33.59761 | 130.44628 | 29 ft | 5 kts | 99° |
| 2026-05-07 13:06 | 33.59771 | 130.44665 | 27 ft | 5 kts | 63° |
| 2026-05-07 13:06 | 33.59786 | 130.44698 | 25 ft | 0 kts | 63° |